createdAt,value
2022-07-30T00:00:24.915Z,4.30
2022-07-30T00:02:52.744Z,4.17
2022-07-30T00:05:19.713Z,4.60
2022-07-30T00:07:59.047Z,4.27
2022-07-30T00:10:27.803Z,3.50
2022-07-30T00:12:57.457Z,4.00
2022-07-30T00:15:24.643Z,3.87
2022-07-30T00:17:57.452Z,3.40
2022-07-30T00:20:27.965Z,3.30
2022-07-30T00:22:55.107Z,3.30
2022-07-30T00:25:21.884Z,3.50
2022-07-30T00:27:48.959Z,3.20
2022-07-30T00:30:16.265Z,3.40
2022-07-30T00:32:43.027Z,3.57
2022-07-30T00:35:11.155Z,3.37
2022-07-30T00:37:37.918Z,3.73
2022-07-30T00:40:06.254Z,4.47
2022-07-30T00:42:39.619Z,5.30
2022-07-30T00:45:10.430Z,4.87
2022-07-30T00:47:41.146Z,4.47
2022-07-30T00:50:10.532Z,3.63
2022-07-30T00:52:39.419Z,4.00
2022-07-30T00:55:08.632Z,3.63
2022-07-30T00:57:35.803Z,3.10
2022-07-30T01:00:03.699Z,3.87
2022-07-30T01:02:30.487Z,2.97
2022-07-30T01:05:00.083Z,3.13
2022-07-30T01:07:27.182Z,3.13
2022-07-30T01:09:57.531Z,3.00
2022-07-30T01:12:26.590Z,3.20
2022-07-30T01:14:55.922Z,3.17
2022-07-30T01:17:23.014Z,3.53
2022-07-30T01:19:54.934Z,4.17
2022-07-30T01:22:33.430Z,3.47
2022-07-30T01:25:34.169Z,3.27
2022-07-30T01:28:03.552Z,3.47
2022-07-30T01:30:34.814Z,3.00
2022-07-30T01:33:03.147Z,3.30
2022-07-30T01:35:32.268Z,23.30
2022-07-30T01:38:05.021Z,11.13
2022-07-30T01:40:32.886Z,4.20
2022-07-30T01:43:01.900Z,4.10
2022-07-30T01:45:30.267Z,5.00
2022-07-30T01:48:05.206Z,4.63
2022-07-30T01:50:36.324Z,3.40
2022-07-30T01:53:04.421Z,3.33
2022-07-30T01:55:37.194Z,3.23
2022-07-30T01:58:06.385Z,3.20
2022-07-30T02:00:38.351Z,3.50
2022-07-30T02:03:08.620Z,3.63
2022-07-30T02:05:36.992Z,3.43
2022-07-30T02:08:12.229Z,3.80
2022-07-30T02:10:51.182Z,6.00
2022-07-30T02:13:24.459Z,4.90
2022-07-30T02:16:22.048Z,4.87
2022-07-30T02:18:58.575Z,4.20
2022-07-30T02:21:36.597Z,4.57
2022-07-30T02:24:08.123Z,4.30
2022-07-30T02:26:37.698Z,4.57
2022-07-30T02:29:10.934Z,4.90
2022-07-30T02:31:39.942Z,5.90
2022-07-30T02:34:08.305Z,5.97
2022-07-30T02:36:36.721Z,5.93
2022-07-30T02:39:04.783Z,6.87
2022-07-30T02:41:40.452Z,6.17
2022-07-30T02:44:08.917Z,7.43
2022-07-30T02:46:40.741Z,7.37
2022-07-30T02:49:11.117Z,7.67
2022-07-30T02:51:38.894Z,7.60
2022-07-30T02:54:09.247Z,6.40
2022-07-30T02:56:40.906Z,5.70
2022-07-30T02:59:10.104Z,6.00
2022-07-30T03:01:45.051Z,5.07
2022-07-30T03:04:22.767Z,5.20
2022-07-30T03:06:55.020Z,4.87
2022-07-30T03:09:25.066Z,6.60
2022-07-30T03:11:53.938Z,5.70
2022-07-30T03:14:27.141Z,5.87
2022-07-30T03:16:59.302Z,6.03
2022-07-30T03:19:31.040Z,5.77
2022-07-30T03:22:02.880Z,5.73
2022-07-30T03:24:34.084Z,5.33
2022-07-30T03:27:03.827Z,5.43
2022-07-30T03:29:32.445Z,6.43
2022-07-30T03:32:03.931Z,5.97
2022-07-30T03:34:33.318Z,5.73
2022-07-30T03:37:05.305Z,5.27
2022-07-30T03:39:37.241Z,4.80
2022-07-30T03:42:08.098Z,6.03
2022-07-30T03:44:42.590Z,7.93
2022-07-30T03:47:10.094Z,6.40
2022-07-30T03:49:37.049Z,6.97
2022-07-30T03:52:04.692Z,7.50
2022-07-30T03:54:36.207Z,10.10
2022-07-30T03:57:04.819Z,7.93
2022-07-30T03:59:36.712Z,7.43
2022-07-30T04:02:05.966Z,7.63
2022-07-30T04:04:34.821Z,6.87
2022-07-30T04:07:08.719Z,7.40
2022-07-30T04:09:36.329Z,6.40
2022-07-30T04:12:03.560Z,6.73
2022-07-30T04:14:45.209Z,6.83
2022-07-30T04:17:42.018Z,6.80
2022-07-30T04:20:09.709Z,7.90
2022-07-30T04:22:40.959Z,9.83
2022-07-30T04:25:09.920Z,7.53
2022-07-30T04:28:02.827Z,6.80
2022-07-30T04:30:33.699Z,6.53
2022-07-30T04:33:01.347Z,6.00
2022-07-30T04:35:51.271Z,6.30
2022-07-30T04:38:22.122Z,6.37
2022-07-30T04:40:49.076Z,6.50
2022-07-30T04:43:23.838Z,5.87
2022-07-30T04:45:51.016Z,5.97
2022-07-30T04:48:18.121Z,7.00
2022-07-30T04:50:53.582Z,6.03
2022-07-30T04:53:21.825Z,5.83
2022-07-30T04:55:52.929Z,5.47
2022-07-30T04:58:24.568Z,5.70
2022-07-30T05:00:53.293Z,5.73
2022-07-30T05:03:22.118Z,6.20
2022-07-30T05:05:50.403Z,5.53
2022-07-30T05:08:22.774Z,5.13
2022-07-30T05:10:49.977Z,5.60
2022-07-30T05:13:20.196Z,5.60
2022-07-30T05:15:49.619Z,5.87
2022-07-30T05:18:16.538Z,5.50
2022-07-30T05:20:50.899Z,5.93
2022-07-30T05:23:17.996Z,6.37
2022-07-30T05:25:45.218Z,5.87
2022-07-30T05:28:12.068Z,6.10
2022-07-30T05:30:39.211Z,5.97
2022-07-30T05:33:15.630Z,6.00
2022-07-30T05:35:43.448Z,5.97
2022-07-30T05:38:10.394Z,6.40
2022-07-30T05:40:37.512Z,6.20
2022-07-30T05:43:05.154Z,6.13
2022-07-30T05:45:39.615Z,6.60
2022-07-30T05:48:06.596Z,6.50
2022-07-30T05:50:33.697Z,6.30
2022-07-30T05:53:00.560Z,6.37
2022-07-30T05:55:27.337Z,6.53
2022-07-30T05:57:54.426Z,6.07
2022-07-30T06:00:21.215Z,6.60
2022-07-30T06:02:51.326Z,5.97
2022-07-30T06:05:18.238Z,6.27
2022-07-30T06:07:45.075Z,6.07
2022-07-30T06:10:15.509Z,6.10
2022-07-30T06:12:42.633Z,5.77
2022-07-30T06:15:13.094Z,5.47
2022-07-30T06:17:51.105Z,5.80
2022-07-30T06:20:27.191Z,6.00
2022-07-30T06:22:54.216Z,5.70
2022-07-30T06:25:21.021Z,6.03
2022-07-30T06:27:47.786Z,5.90
2022-07-30T06:30:14.966Z,5.53
2022-07-30T06:32:45.776Z,5.97
2022-07-30T06:35:19.028Z,4.90
2022-07-30T06:37:58.846Z,5.60
2022-07-30T06:40:33.857Z,5.70
2022-07-30T06:43:00.708Z,4.90
2022-07-30T06:45:39.959Z,6.23
2022-07-30T06:48:07.079Z,5.60
2022-07-30T06:50:35.608Z,5.80
2022-07-30T06:53:02.807Z,6.03
2022-07-30T06:55:29.801Z,5.20
2022-07-30T06:57:59.762Z,5.80
2022-07-30T07:00:32.615Z,5.43
2022-07-30T07:05:40.080Z,5.30
2022-07-30T07:08:06.966Z,5.10
2022-07-30T07:10:33.886Z,5.70
2022-07-30T07:13:00.812Z,5.93
2022-07-30T07:15:37.037Z,6.07
2022-07-30T07:18:05.819Z,5.67
2022-07-30T07:20:33.956Z,6.20
2022-07-30T07:23:05.274Z,5.70
2022-07-30T07:25:39.635Z,5.30
2022-07-30T07:28:12.238Z,4.93
2022-07-30T07:30:41.590Z,5.53
2022-07-30T07:33:12.188Z,4.87
2022-07-30T07:35:45.513Z,4.37
2022-07-30T07:38:17.356Z,4.93
2022-07-30T07:40:44.130Z,5.10
2022-07-30T07:43:11.031Z,4.90
2022-07-30T07:45:38.163Z,5.10
2022-07-30T07:48:05.564Z,5.17
2022-07-30T07:50:32.600Z,5.30
2022-07-30T07:52:59.797Z,5.37
2022-07-30T07:55:26.999Z,5.10
2022-07-30T07:57:54.460Z,4.83
2022-07-30T08:00:21.651Z,4.63
2022-07-30T08:02:49.225Z,5.13
2022-07-30T08:05:19.390Z,5.03
2022-07-30T08:07:46.326Z,4.80
2022-07-30T08:10:16.531Z,5.00
2022-07-30T08:12:46.034Z,5.00
2022-07-30T08:15:12.890Z,5.37
2022-07-30T08:17:44.785Z,4.87
2022-07-30T08:20:13.154Z,5.00
2022-07-30T08:22:40.466Z,5.00
2022-07-30T08:25:07.951Z,4.97
2022-07-30T08:27:35.085Z,5.13
2022-07-30T08:30:07.784Z,5.40
2022-07-30T08:32:35.597Z,4.80
2022-07-30T08:35:04.034Z,5.23
2022-07-30T08:37:31.111Z,4.83
2022-07-30T08:39:59.070Z,4.70
2022-07-30T08:42:27.357Z,4.87
2022-07-30T08:44:59.355Z,4.97
2022-07-30T08:47:33.992Z,5.43
2022-07-30T08:50:07.052Z,4.30
2022-07-30T08:52:36.685Z,4.73
2022-07-30T08:55:05.135Z,4.93
2022-07-30T08:57:33.832Z,4.90
2022-07-30T09:00:05.143Z,4.73
2022-07-30T09:02:35.530Z,4.77
2022-07-30T09:05:02.422Z,4.60
2022-07-30T09:07:29.282Z,4.30
2022-07-30T09:09:59.820Z,4.60
2022-07-30T09:12:39.726Z,4.50
2022-07-30T09:15:11.382Z,4.20
2022-07-30T09:17:57.205Z,4.53
2022-07-30T09:20:39.472Z,5.10
2022-07-30T09:23:06.731Z,5.03
2022-07-30T09:25:59.911Z,4.30
2022-07-30T09:28:33.026Z,4.07
2022-07-30T09:31:00.446Z,4.00
2022-07-30T09:33:40.344Z,4.27
2022-07-30T09:36:09.584Z,4.30
2022-07-30T09:38:52.462Z,4.20
2022-07-30T09:41:38.680Z,4.10
2022-07-30T09:44:06.778Z,4.00
2022-07-30T09:46:48.317Z,4.60
2022-07-30T09:49:21.073Z,3.90
2022-07-30T09:51:55.833Z,4.30
2022-07-30T09:54:51.615Z,5.50
2022-07-30T09:57:25.577Z,4.50
2022-07-30T09:59:59.863Z,4.30
2022-07-30T10:02:39.364Z,4.23
2022-07-30T10:05:15.945Z,4.80
2022-07-30T10:07:54.524Z,5.07
2022-07-30T10:10:34.352Z,4.87
2022-07-30T10:13:04.874Z,4.90
2022-07-30T10:15:34.681Z,4.87
2022-07-30T10:18:06.772Z,4.43
2022-07-30T10:20:35.625Z,3.80
2022-07-30T10:23:09.947Z,3.80
2022-07-30T10:25:48.849Z,3.43
2022-07-30T10:28:17.751Z,4.03
2022-07-30T10:30:47.775Z,3.83
2022-07-30T10:33:35.262Z,3.70
2022-07-30T10:36:03.821Z,4.20
2022-07-30T10:38:39.227Z,3.30
2022-07-30T10:41:42.750Z,3.20
2022-07-30T10:44:45.816Z,3.20
2022-07-30T10:47:16.414Z,3.13
2022-07-30T10:53:01.290Z,3.37
2022-07-30T10:55:32.982Z,2.80
2022-07-30T10:58:14.365Z,3.00
2022-07-30T11:00:51.895Z,2.77
2022-07-30T11:03:41.501Z,2.60
2022-07-30T11:06:15.360Z,10.03
2022-07-30T11:08:49.860Z,2.77
2022-07-30T11:11:59.346Z,2.80
2022-07-30T11:14:10.964Z,2.70
2022-07-30T11:16:47.216Z,3.00
2022-07-30T11:19:53.290Z,3.07
2022-07-30T11:22:28.266Z,2.57
2022-07-30T11:25:00.342Z,2.90
2022-07-30T11:27:48.494Z,2.77
2022-07-30T11:30:23.430Z,2.70
2022-07-30T11:33:12.340Z,2.70
2022-07-30T11:35:39.519Z,3.00
2022-07-30T11:38:22.616Z,3.33
2022-07-30T11:40:49.594Z,3.30
2022-07-30T11:43:35.792Z,3.30
2022-07-30T11:46:12.335Z,3.37
2022-07-30T11:48:57.419Z,3.23
2022-07-30T11:51:24.769Z,3.70
2022-07-30T11:54:10.552Z,4.20
2022-07-30T11:56:55.425Z,4.07
2022-07-30T11:59:22.494Z,4.50
2022-07-30T12:01:51.204Z,5.00
2022-07-30T12:04:18.365Z,5.10
2022-07-30T12:06:49.072Z,5.33
2022-07-30T12:09:29.035Z,6.07
2022-07-30T12:11:56.769Z,6.33
2022-07-30T12:14:23.619Z,6.27
2022-07-30T12:16:53.549Z,6.33
2022-07-30T12:19:27.237Z,6.10
2022-07-30T12:22:00.251Z,6.40
2022-07-30T12:24:30.432Z,6.30
2022-07-30T12:27:07.726Z,6.20
2022-07-30T12:29:38.351Z,6.00
2022-07-30T12:32:07.712Z,6.20
2022-07-30T12:34:34.600Z,6.07
2022-07-30T12:37:10.618Z,5.23
2022-07-30T12:42:20.166Z,4.10
2022-07-30T12:44:49.637Z,4.70
2022-07-30T12:47:26.561Z,3.63
2022-07-30T12:49:58.085Z,5.70
2022-07-30T12:52:30.791Z,3.37
2022-07-30T12:55:01.158Z,2.80
2022-07-30T12:58:07.138Z,3.20
2022-07-30T13:00:44.343Z,5.60
2022-07-30T13:03:28.812Z,3.07
2022-07-30T13:05:57.350Z,2.50
2022-07-30T13:08:59.157Z,2.60
2022-07-30T13:11:28.450Z,2.70
2022-07-30T13:13:55.458Z,2.63
2022-07-30T13:16:40.262Z,4.03
2022-07-30T13:19:11.866Z,3.43
2022-07-30T13:21:40.157Z,3.13
2022-07-30T13:24:18.258Z,3.00
2022-07-30T13:26:51.095Z,3.20
2022-07-30T13:29:17.976Z,3.10
2022-07-30T13:31:44.749Z,3.30
2022-07-30T13:34:15.070Z,3.03
2022-07-30T13:36:42.353Z,3.40
2022-07-30T13:39:09.225Z,3.50
2022-07-30T13:41:36.208Z,4.23
2022-07-30T13:44:04.130Z,4.40
2022-07-30T13:46:30.967Z,4.07
2022-07-30T13:48:58.227Z,4.00
2022-07-30T13:51:25.252Z,4.00
2022-07-30T13:53:52.432Z,3.30
2022-07-30T13:56:20.051Z,3.87
2022-07-30T13:58:48.253Z,4.27
2022-07-30T14:01:17.644Z,3.50
2022-07-30T14:03:49.396Z,2.90
2022-07-30T14:06:18.349Z,3.37
2022-07-30T14:08:45.522Z,3.70
2022-07-30T14:11:13.141Z,3.50
2022-07-30T14:13:40.002Z,3.97
2022-07-30T14:16:35.411Z,4.20
2022-07-30T14:18:59.983Z,4.43
2022-07-30T14:21:27.142Z,3.77
2022-07-30T14:23:55.453Z,3.80
2022-07-30T14:26:25.193Z,4.00
2022-07-30T14:29:00.488Z,3.80
2022-07-30T14:31:27.251Z,3.70
2022-07-30T14:33:54.636Z,3.60
2022-07-30T14:36:21.465Z,2.97
2022-07-30T14:38:48.607Z,3.60
2022-07-30T14:41:15.376Z,3.70
2022-07-30T14:43:42.101Z,3.57
2022-07-30T14:46:12.124Z,3.10
2022-07-30T14:48:39.396Z,3.23
2022-07-30T14:51:19.701Z,3.20
2022-07-30T14:53:56.745Z,2.90
2022-07-30T14:56:27.176Z,3.10
2022-07-30T14:58:57.659Z,11.60
2022-07-30T15:01:24.978Z,3.00
2022-07-30T15:03:52.403Z,2.63
2022-07-30T15:06:19.167Z,2.80
2022-07-30T15:08:49.117Z,2.83
2022-07-30T15:11:15.914Z,2.70
2022-07-30T15:13:50.114Z,2.90
2022-07-30T15:16:17.996Z,2.40
2022-07-30T15:18:50.392Z,2.63
2022-07-30T15:21:17.564Z,2.43
2022-07-30T15:23:44.477Z,2.50
2022-07-30T15:26:11.592Z,2.40
2022-07-30T15:28:38.790Z,2.40
2022-07-30T15:31:08.172Z,2.23
2022-07-30T15:33:37.303Z,2.30
2022-07-30T15:36:04.291Z,2.40
2022-07-30T15:38:31.097Z,2.50
2022-07-30T15:40:57.872Z,2.40
2022-07-30T15:43:30.793Z,3.90
2022-07-30T15:45:59.780Z,2.80
2022-07-30T15:48:29.985Z,2.60
2022-07-30T15:51:08.714Z,2.10
2022-07-30T15:53:35.953Z,2.23
2022-07-30T15:56:02.748Z,2.27
2022-07-30T15:58:29.998Z,7.27
2022-07-30T16:00:57.042Z,5.63
2022-07-30T16:03:23.996Z,2.80
2022-07-30T16:05:54.338Z,2.33
2022-07-30T16:08:21.891Z,2.97
2022-07-30T16:10:57.024Z,2.90
2022-07-30T16:13:26.891Z,2.73
2022-07-30T16:15:53.650Z,2.90
2022-07-30T16:18:23.213Z,3.77
2022-07-30T16:20:50.648Z,3.00
2022-07-30T16:23:21.281Z,3.30
2022-07-30T16:25:55.187Z,2.90
2022-07-30T16:28:25.543Z,3.17
2022-07-30T16:30:52.316Z,2.90
2022-07-30T16:33:19.977Z,3.57
2022-07-30T16:35:49.179Z,3.03
2022-07-30T16:38:18.722Z,3.03
2022-07-30T16:40:45.683Z,3.43
2022-07-30T16:43:12.861Z,3.33
2022-07-30T16:45:43.680Z,3.60
2022-07-30T16:48:13.706Z,3.67
2022-07-30T16:50:41.484Z,3.27
2022-07-30T16:53:14.097Z,4.40
2022-07-30T16:55:42.024Z,3.30
2022-07-30T16:58:09.539Z,3.50
2022-07-30T17:00:39.479Z,3.53
2022-07-30T17:03:06.838Z,3.30
2022-07-30T17:05:33.603Z,3.27
2022-07-30T17:08:00.418Z,2.90
2022-07-30T17:10:27.872Z,3.17
2022-07-30T17:12:57.026Z,2.80
2022-07-30T17:15:32.255Z,2.90
2022-07-30T17:18:00.910Z,2.83
2022-07-30T17:20:28.833Z,2.87
2022-07-30T17:22:56.202Z,2.90
2022-07-30T17:25:30.513Z,2.90
2022-07-30T17:27:59.089Z,2.90
2022-07-30T17:30:28.056Z,3.10
2022-07-30T17:32:58.573Z,3.00
2022-07-30T17:35:26.037Z,2.70
2022-07-30T17:37:53.174Z,3.70
2022-07-30T17:40:30.281Z,3.20
2022-07-30T17:43:04.788Z,3.40
2022-07-30T17:45:36.617Z,3.50
2022-07-30T17:48:07.970Z,3.30
2022-07-30T17:50:34.937Z,3.70
2022-07-30T17:53:03.918Z,3.70
2022-07-30T17:55:31.957Z,3.67
2022-07-30T17:57:58.700Z,3.87
2022-07-30T18:00:31.700Z,3.63
2022-07-30T18:02:58.855Z,3.53
2022-07-30T18:05:25.682Z,3.53
2022-07-30T18:07:52.466Z,3.40
2022-07-30T18:10:22.745Z,3.80
2022-07-30T18:12:49.910Z,3.50
2022-07-30T18:15:17.899Z,3.43
2022-07-30T18:17:45.888Z,3.60
2022-07-30T18:20:15.304Z,4.10
2022-07-30T18:22:42.253Z,3.73
2022-07-30T18:25:19.008Z,5.63
2022-07-30T18:27:47.241Z,5.50
2022-07-30T18:30:14.731Z,4.27
2022-07-30T18:32:45.381Z,5.53
2022-07-30T18:35:16.090Z,5.93
2022-07-30T18:37:44.038Z,4.10
2022-07-30T18:40:13.297Z,4.00
2022-07-30T18:42:40.776Z,4.83
2022-07-30T18:45:17.218Z,5.10
2022-07-30T18:47:45.192Z,5.40
2022-07-30T18:50:15.134Z,5.40
2022-07-30T18:52:42.252Z,9.53
2022-07-30T18:55:11.627Z,5.27
2022-07-30T18:57:41.641Z,6.10
2022-07-30T19:00:34.060Z,6.10
2022-07-30T19:03:02.467Z,5.80
2022-07-30T19:08:17.771Z,5.77
2022-07-30T19:10:44.902Z,6.90
2022-07-30T19:13:12.159Z,11.30
2022-07-30T19:15:39.631Z,8.60
2022-07-30T19:18:06.467Z,6.37
2022-07-30T19:20:36.394Z,7.00
2022-07-30T19:23:04.849Z,6.73
2022-07-30T19:25:39.499Z,6.00
2022-07-30T19:28:06.609Z,6.40
2022-07-30T19:30:36.907Z,5.90
2022-07-30T19:33:14.765Z,26.83
2022-07-30T19:35:51.437Z,11.83
2022-07-30T19:38:21.782Z,6.33
2022-07-30T19:40:49.333Z,6.77
2022-07-30T19:43:16.525Z,6.00
2022-07-30T19:45:46.920Z,8.07
2022-07-30T19:48:14.861Z,6.93
2022-07-30T19:50:55.932Z,6.10
2022-07-30T19:53:23.153Z,8.83
2022-07-30T19:55:50.987Z,10.03
2022-07-30T19:58:17.971Z,9.30
2022-07-30T20:00:51.776Z,8.07
2022-07-30T20:03:25.282Z,9.60
2022-07-30T20:05:57.254Z,7.40
2022-07-30T20:08:30.213Z,6.73
2022-07-30T20:10:59.167Z,6.70
2022-07-30T20:13:44.665Z,7.00
2022-07-30T20:16:14.738Z,6.37
2022-07-30T20:18:42.842Z,6.77
2022-07-30T20:21:15.011Z,7.10
2022-07-30T20:23:48.258Z,7.37
2022-07-30T20:26:26.170Z,6.90
2022-07-30T20:28:56.082Z,6.80
2022-07-30T20:31:26.164Z,6.40
2022-07-30T20:33:53.356Z,6.40
2022-07-30T20:36:22.238Z,6.20
2022-07-30T20:38:49.387Z,5.93
2022-07-30T20:41:16.769Z,6.20
2022-07-30T20:43:51.792Z,7.20
2022-07-30T20:46:23.203Z,6.70
2022-07-30T20:48:51.543Z,7.03
2022-07-30T20:51:18.431Z,6.93
2022-07-30T20:53:45.710Z,6.80
2022-07-30T20:56:14.647Z,6.60
2022-07-30T20:58:41.760Z,6.53
2022-07-30T21:01:15.638Z,7.20
2022-07-30T21:03:48.139Z,6.73
2022-07-30T21:06:31.959Z,6.57
2022-07-30T21:09:01.742Z,7.00
2022-07-30T21:11:28.551Z,6.50
2022-07-30T21:13:55.888Z,6.77
2022-07-30T21:16:23.737Z,6.33
2022-07-30T21:21:41.734Z,7.07
2022-07-30T21:24:12.303Z,6.23
2022-07-30T21:26:42.319Z,6.60
2022-07-30T21:29:09.636Z,6.40
2022-07-30T21:32:00.431Z,6.67
2022-07-30T21:37:06.223Z,7.10
2022-07-30T21:39:39.644Z,11.73
2022-07-30T21:42:08.201Z,6.73
2022-07-30T21:44:37.978Z,7.47
2022-07-30T21:47:10.330Z,7.33
2022-07-30T21:49:38.555Z,7.37
2022-07-30T21:52:07.107Z,7.23
2022-07-30T21:54:45.653Z,7.17
2022-07-30T21:57:26.455Z,7.20
2022-07-30T21:59:57.901Z,7.27
2022-07-30T22:02:25.055Z,7.17
2022-07-30T22:04:53.683Z,7.30
2022-07-30T22:07:21.788Z,7.90
2022-07-30T22:09:54.526Z,7.53
2022-07-30T22:12:21.648Z,7.83
2022-07-30T22:14:53.078Z,8.07
2022-07-30T22:17:36.884Z,8.17
2022-07-30T22:20:16.147Z,8.43
2022-07-30T22:22:46.487Z,8.37
2022-07-30T22:25:13.448Z,9.00
2022-07-30T22:27:56.333Z,8.70
2022-07-30T22:30:29.883Z,8.73
2022-07-30T22:33:18.243Z,8.33
2022-07-30T22:35:49.947Z,7.97
2022-07-30T22:38:19.642Z,8.67
2022-07-30T22:40:47.302Z,8.63
2022-07-30T22:43:16.400Z,8.57
2022-07-30T22:45:47.240Z,8.63
2022-07-30T22:51:11.887Z,9.23
2022-07-30T22:54:03.439Z,8.80
2022-07-30T22:56:25.969Z,9.77
2022-07-30T22:58:52.991Z,10.10
2022-07-30T23:01:22.932Z,9.93
2022-07-30T23:03:49.876Z,9.90
2022-07-30T23:06:17.168Z,9.37
2022-07-30T23:08:47.819Z,8.70
2022-07-30T23:11:14.842Z,9.10
2022-07-30T23:12:34.250Z,9.50
2022-07-30T23:13:44.669Z,9.37
2022-07-30T23:16:11.738Z,9.33
2022-07-30T23:18:38.547Z,8.63
2022-07-30T23:21:05.420Z,9.27
2022-07-30T23:23:35.857Z,9.10
2022-07-30T23:26:06.523Z,9.00
2022-07-30T23:28:33.452Z,8.67
2022-07-30T23:31:00.816Z,8.87
2022-07-30T23:33:27.586Z,8.43
2022-07-30T23:35:57.717Z,8.87
2022-07-30T23:38:25.279Z,8.43
2022-07-30T23:40:55.200Z,8.07
2022-07-30T23:43:22.194Z,7.73
2022-07-30T23:45:49.576Z,8.27
2022-07-30T23:48:28.802Z,8.70
2022-07-30T23:50:55.667Z,8.77
2022-07-30T23:53:22.829Z,9.03
2022-07-30T23:55:57.885Z,8.63
2022-07-30T23:58:24.965Z,8.33
